Time;durP1;ratioP1;P1;durP2;ratioP2;P2;SDS_P1;SDS_P2;PMS_P1;PMS_P2;Temp;Humidity;BMP_temperature;BMP_pressure;BME280_temperature;BME280_humidity;BME280_pressure;Samples;Min_cycle;Max_cycle;Signal;HPM_P1;HPM_P2
2023/07/10 00:02:09;;;;;;;3.60;3.30;;;;;;;;;;5023600;23;20430;-81
2023/07/10 00:04:35;;;;;;;4.47;3.05;;;;;;;;;;4991406;28;20432;-81
2023/07/10 00:07:01;;;;;;;3.65;3.20;;;;;;;;;;4990210;28;20386;-81
2023/07/10 00:09:27;;;;;;;3.63;3.17;;;;;;;;;;4991010;28;20417;-81
2023/07/10 00:11:56;;;;;;;3.58;3.20;;;;;;;;;;4991476;28;20897;-81
2023/07/10 00:14:24;;;;;;;3.33;3.03;;;;;;;;;;4991287;28;20378;-81
2023/07/10 00:16:50;;;;;;;3.30;3.00;;;;;;;;;;4991742;28;20523;-81
2023/07/10 00:19:19;;;;;;;3.05;2.75;;;;;;;;;;4991273;28;20740;-81
2023/07/10 00:21:47;;;;;;;3.63;3.03;;;;;;;;;;4991499;28;20378;-81
2023/07/10 00:24:19;;;;;;;3.50;3.00;;;;;;;;;;4991452;28;20894;-81
2023/07/10 00:26:47;;;;;;;3.83;3.25;;;;;;;;;;4991232;28;20419;-81
2023/07/10 00:29:19;;;;;;;3.63;3.20;;;;;;;;;;4991247;28;20880;-81
2023/07/10 00:31:45;;;;;;;3.80;3.23;;;;;;;;;;4990963;28;20752;-81
2023/07/10 00:34:15;;;;;;;3.70;3.00;;;;;;;;;;4992127;28;20452;-80
2023/07/10 00:36:45;;;;;;;3.45;3.15;;;;;;;;;;4994337;28;20884;-81
2023/07/10 00:39:17;;;;;;;7.18;3.25;;;;;;;;;;4994585;28;20476;-81
2023/07/10 00:41:46;;;;;;;4.15;3.08;;;;;;;;;;4994147;28;20378;-81
2023/07/10 00:44:13;;;;;;;4.00;3.03;;;;;;;;;;4997051;28;20382;-81
2023/07/10 00:46:41;;;;;;;5.17;3.13;;;;;;;;;;4984426;28;20479;-81
2023/07/10 00:49:20;;;;;;;3.45;3.10;;;;;;;;;;4994343;28;20397;-81
2023/07/10 00:51:58;;;;;;;3.85;3.03;;;;;;;;;;4994115;28;20390;-81
2023/07/10 00:54:32;;;;;;;4.90;3.22;;;;;;;;;;4994317;28;20473;-81
2023/07/10 00:57:00;;;;;;;4.40;3.35;;;;;;;;;;4994114;28;20386;-80
2023/07/10 00:59:27;;;;;;;3.90;3.20;;;;;;;;;;4994190;28;20478;-81
2023/07/10 01:02:09;;;;;;;3.70;3.05;;;;;;;;;;4839279;28;4481562;-81
2023/07/10 01:04:36;;;;;;;4.35;3.08;;;;;;;;;;4995237;28;20449;-81
2023/07/10 01:07:02;;;;;;;3.70;3.10;;;;;;;;;;4995155;28;20979;-81
2023/07/10 01:09:28;;;;;;;3.50;3.20;;;;;;;;;;4994976;28;20422;-81
2023/07/10 01:11:54;;;;;;;3.30;3.00;;;;;;;;;;4995119;28;20955;-81
2023/07/10 01:14:21;;;;;;;4.15;3.15;;;;;;;;;;4995011;28;20464;-81
2023/07/10 01:16:52;;;;;;;3.15;2.85;;;;;;;;;;4995438;28;20437;-81
2023/07/10 01:19:20;;;;;;;3.70;3.10;;;;;;;;;;4996642;28;20888;-81
2023/07/10 01:21:47;;;;;;;3.17;2.88;;;;;;;;;;4985903;28;20406;-81
2023/07/10 01:24:13;;;;;;;3.60;3.30;;;;;;;;;;4994779;28;20398;-81
2023/07/10 01:26:40;;;;;;;3.33;3.03;;;;;;;;;;4995024;28;20418;-80
2023/07/10 01:29:16;;;;;;;2.92;2.72;;;;;;;;;;4994777;28;20378;-81
2023/07/10 01:31:42;;;;;;;5.97;3.20;;;;;;;;;;4994739;28;20379;-80
2023/07/10 01:34:10;;;;;;;3.28;3.08;;;;;;;;;;4994213;28;20868;-81
2023/07/10 01:36:37;;;;;;;3.28;2.97;;;;;;;;;;4994528;28;20387;-81
2023/07/10 01:39:23;;;;;;;3.93;3.10;;;;;;;;;;4994727;28;20414;-81
2023/07/10 01:41:49;;;;;;;4.03;3.42;;;;;;;;;;4994828;28;20379;-81
2023/07/10 01:44:24;;;;;;;3.92;3.22;;;;;;;;;;4994570;28;20375;-80
2023/07/10 01:46:50;;;;;;;4.25;3.22;;;;;;;;;;4993464;28;20415;-80
2023/07/10 01:49:17;;;;;;;3.30;2.80;;;;;;;;;;4994423;28;20378;-80
2023/07/10 01:51:43;;;;;;;4.80;3.22;;;;;;;;;;4994574;28;20374;-81
2023/07/10 01:54:12;;;;;;;4.63;3.30;;;;;;;;;;4994398;28;20385;-81
2023/07/10 01:56:38;;;;;;;3.58;3.10;;;;;;;;;;4994079;28;20389;-81
2023/07/10 01:59:04;;;;;;;3.67;2.92;;;;;;;;;;4994346;28;20379;-81
2023/07/10 02:01:30;;;;;;;3.60;3.30;;;;;;;;;;4993906;28;20414;-80
2023/07/10 02:03:56;;;;;;;3.60;3.00;;;;;;;;;;4994129;28;20873;-81
2023/07/10 02:06:22;;;;;;;4.18;3.22;;;;;;;;;;4994242;28;20390;-81
2023/07/10 02:08:48;;;;;;;3.30;3.00;;;;;;;;;;4990839;28;20379;-82
2023/07/10 02:11:14;;;;;;;3.45;3.15;;;;;;;;;;4994011;28;20900;-82
2023/07/10 02:13:40;;;;;;;4.63;3.22;;;;;;;;;;4993391;28;20394;-81
2023/07/10 02:16:09;;;;;;;4.00;3.05;;;;;;;;;;4993493;28;20869;-80
2023/07/10 02:18:35;;;;;;;3.55;3.10;;;;;;;;;;4993801;28;20438;-81
2023/07/10 02:21:01;;;;;;;3.40;2.90;;;;;;;;;;4993627;28;20950;-81
2023/07/10 02:23:27;;;;;;;3.17;2.88;;;;;;;;;;4985782;28;20399;-82
2023/07/10 02:25:53;;;;;;;3.38;3.05;;;;;;;;;;4976883;28;20743;-82
2023/07/10 02:28:22;;;;;;;4.95;3.58;;;;;;;;;;4988838;28;20402;-82
2023/07/10 02:30:48;;;;;;;3.67;3.20;;;;;;;;;;4962347;28;20444;-82
2023/07/10 02:33:15;;;;;;;3.40;2.83;;;;;;;;;;4992189;28;20406;-82
2023/07/10 02:35:41;;;;;;;3.25;3.03;;;;;;;;;;4992958;28;20871;-82
2023/07/10 02:38:08;;;;;;;3.60;3.20;;;;;;;;;;4991063;28;20422;-82
2023/07/10 02:40:37;;;;;;;3.42;3.13;;;;;;;;;;4992694;28;20406;-82
2023/07/10 02:43:03;;;;;;;3.65;3.28;;;;;;;;;;4992879;28;20391;-82
2023/07/10 02:45:29;;;;;;;4.78;3.20;;;;;;;;;;4994020;28;20391;-82
2023/07/10 02:47:55;;;;;;;4.57;3.00;;;;;;;;;;4975868;28;20429;-82
2023/07/10 02:50:24;;;;;;;3.40;3.10;;;;;;;;;;4996638;28;20472;-81
2023/07/10 02:52:50;;;;;;;5.43;3.38;;;;;;;;;;4993219;28;20379;-82
2023/07/10 02:55:16;;;;;;;3.42;3.10;;;;;;;;;;4993153;28;20386;-82
2023/07/10 02:57:45;;;;;;;6.05;3.40;;;;;;;;;;4993128;28;20391;-82
2023/07/10 03:00:11;;;;;;;4.75;3.17;;;;;;;;;;4993104;28;20394;-82
2023/07/10 03:02:37;;;;;;;3.53;3.22;;;;;;;;;;4975338;28;20789;-82
2023/07/10 03:05:03;;;;;;;3.88;3.47;;;;;;;;;;4993259;28;20394;-82
2023/07/10 03:07:30;;;;;;;5.32;3.20;;;;;;;;;;4992856;28;20394;-82
2023/07/10 03:09:59;;;;;;;7.90;3.47;;;;;;;;;;4975436;28;20877;-82
2023/07/10 03:12:25;;;;;;;5.85;3.30;;;;;;;;;;4992841;28;20416;-81
2023/07/10 03:14:51;;;;;;;3.77;3.20;;;;;;;;;;4992977;28;20389;-82
2023/07/10 03:17:18;;;;;;;4.20;3.10;;;;;;;;;;4992841;28;20473;-82
2023/07/10 03:19:44;;;;;;;3.90;3.22;;;;;;;;;;4993182;28;20391;-82
2023/07/10 03:22:10;;;;;;;4.47;3.38;;;;;;;;;;4992753;28;20440;-82
2023/07/10 03:24:36;;;;;;;4.53;3.20;;;;;;;;;;4995174;28;20394;-82
2023/07/10 03:27:02;;;;;;;3.70;3.38;;;;;;;;;;4992816;28;20470;-81
2023/07/10 03:29:28;;;;;;;5.03;3.57;;;;;;;;;;4998897;28;20882;-81
2023/07/10 03:31:54;;;;;;;5.60;3.47;;;;;;;;;;4992234;28;20396;-81
2023/07/10 03:34:20;;;;;;;3.92;3.53;;;;;;;;;;4992576;28;20746;-81
2023/07/10 03:36:46;;;;;;;5.03;3.80;;;;;;;;;;4992723;28;20413;-81
2023/07/10 03:39:13;;;;;;;3.95;3.65;;;;;;;;;;4992654;28;20413;-80
2023/07/10 03:41:39;;;;;;;4.50;3.80;;;;;;;;;;4990734;28;20411;-81
2023/07/10 03:44:05;;;;;;;3.60;3.30;;;;;;;;;;4963608;28;20388;-81
2023/07/10 03:46:31;;;;;;;4.15;3.35;;;;;;;;;;4978182;28;20927;-81
2023/07/10 03:48:57;;;;;;;3.90;3.40;;;;;;;;;;4980932;28;20470;-81
2023/07/10 03:51:23;;;;;;;4.03;3.63;;;;;;;;;;4991268;28;20514;-81
2023/07/10 03:53:49;;;;;;;4.40;3.50;;;;;;;;;;4992576;28;20433;-81
2023/07/10 03:56:16;;;;;;;4.38;3.60;;;;;;;;;;4991745;28;20428;-82
2023/07/10 03:58:42;;;;;;;3.50;3.15;;;;;;;;;;4992557;28;20382;-82
2023/07/10 04:01:08;;;;;;;3.75;3.40;;;;;;;;;;4992233;28;20414;-81
2023/07/10 04:03:35;;;;;;;3.30;3.00;;;;;;;;;;4992537;28;20414;-81
2023/07/10 04:06:02;;;;;;;4.15;3.53;;;;;;;;;;4992500;28;20399;-81
2023/07/10 04:08:30;;;;;;;4.45;3.47;;;;;;;;;;4992414;28;20395;-81
2023/07/10 04:10:57;;;;;;;3.47;3.17;;;;;;;;;;4977980;28;20438;-82
2023/07/10 04:13:26;;;;;;;4.97;3.20;;;;;;;;;;4996226;28;20943;-81
2023/07/10 04:16:21;;;;;;;5.22;3.25;;;;;;;;;;4996180;28;20882;-81
2023/07/10 04:18:48;;;;;;;4.70;3.50;;;;;;;;;;4979780;28;20410;-82
2023/07/10 04:21:20;;;;;;;4.47;3.40;;;;;;;;;;4996107;28;20429;-82
2023/07/10 04:23:46;;;;;;;4.10;3.50;;;;;;;;;;4996058;28;20382;-82
2023/07/10 04:26:35;;;;;;;4.22;3.30;;;;;;;;;;4996259;28;20783;-81
2023/07/10 04:29:03;;;;;;;3.78;3.40;;;;;;;;;;4986173;28;20443;-81
2023/07/10 04:31:29;;;;;;;5.25;3.60;;;;;;;;;;4995854;28;20442;-81
2023/07/10 04:33:58;;;;;;;3.17;2.97;;;;;;;;;;4995871;28;20378;-81
2023/07/10 04:36:24;;;;;;;4.57;3.40;;;;;;;;;;4995721;28;20383;-81
2023/07/10 04:38:50;;;;;;;3.90;3.22;;;;;;;;;;4995889;28;20740;-81
2023/07/10 04:41:26;;;;;;;3.50;3.20;;;;;;;;;;4995541;28;20390;-81
2023/07/10 04:43:52;;;;;;;7.05;3.92;;;;;;;;;;4995849;28;20386;-81
2023/07/10 04:46:19;;;;;;;7.97;5.13;;;;;;;;;;4995425;28;20390;-81
2023/07/10 04:48:45;;;;;;;9.73;4.97;;;;;;;;;;4995531;28;20390;-81
2023/07/10 04:51:12;;;;;;;8.43;5.75;;;;;;;;;;4995493;28;20403;-81
2023/07/10 04:53:38;;;;;;;10.00;5.10;;;;;;;;;;4997328;28;20387;-81
2023/07/10 04:56:05;;;;;;;16.15;5.70;;;;;;;;;;5006037;28;20470;-81
2023/07/10 04:58:45;;;;;;;20.85;6.88;;;;;;;;;;4993137;28;20466;-81
2023/07/10 05:01:11;;;;;;;10.93;5.83;;;;;;;;;;4995187;28;20406;-81
2023/07/10 05:03:37;;;;;;;11.20;5.53;;;;;;;;;;4995327;28;20752;-81
2023/07/10 05:06:09;;;;;;;10.93;5.30;;;;;;;;;;4995557;28;20764;-81
2023/07/10 05:08:35;;;;;;;5.60;4.32;;;;;;;;;;4995276;28;20391;-81
2023/07/10 05:11:01;;;;;;;6.43;4.17;;;;;;;;;;4994972;28;20536;-81
2023/07/10 05:13:28;;;;;;;5.25;4.18;;;;;;;;;;4995093;28;20911;-81
2023/07/10 05:15:56;;;;;;;5.70;3.88;;;;;;;;;;4994942;28;20399;-81
2023/07/10 05:18:22;;;;;;;5.18;3.90;;;;;;;;;;4995335;28;20731;-81
2023/07/10 05:20:48;;;;;;;5.43;3.83;;;;;;;;;;4994761;28;20387;-81
2023/07/10 05:23:15;;;;;;;5.60;4.10;;;;;;;;;;5003309;28;20397;-81
2023/07/10 05:25:42;;;;;;;4.20;3.80;;;;;;;;;;4977781;28;20397;-81
2023/07/10 05:28:08;;;;;;;5.25;3.72;;;;;;;;;;4994890;28;20410;-81
2023/07/10 05:30:37;;;;;;;4.40;4.00;;;;;;;;;;4994667;28;20408;-81
2023/07/10 05:33:03;;;;;;;14.82;5.07;;;;;;;;;;4994915;28;20732;-81
2023/07/10 05:35:29;;;;;;;9.98;4.57;;;;;;;;;;4977298;28;20394;-81
2023/07/10 05:37:55;;;;;;;13.93;5.53;;;;;;;;;;4993865;28;20470;-81
2023/07/10 05:40:21;;;;;;;8.27;4.70;;;;;;;;;;4999174;28;20485;-82
2023/07/10 05:42:47;;;;;;;5.32;4.70;;;;;;;;;;4994323;28;20756;-81
2023/07/10 05:45:13;;;;;;;6.53;4.78;;;;;;;;;;4993829;28;20397;-82
2023/07/10 05:47:39;;;;;;;6.95;4.25;;;;;;;;;;4996068;28;20399;-80
2023/07/10 05:50:05;;;;;;;7.55;4.95;;;;;;;;;;4994072;28;20895;-80
2023/07/10 05:52:40;;;;;;;6.18;4.40;;;;;;;;;;4993744;28;20390;-80
2023/07/10 05:55:06;;;;;;;6.07;4.65;;;;;;;;;;4993736;28;20409;-81
2023/07/10 05:57:32;;;;;;;7.13;5.10;;;;;;;;;;4969792;28;20475;-81
2023/07/10 06:00:00;;;;;;;6.32;5.13;;;;;;;;;;4989635;28;20565;-80
2023/07/10 06:02:26;;;;;;;6.90;4.70;;;;;;;;;;4993663;28;20414;-80
2023/07/10 06:04:58;;;;;;;6.70;4.80;;;;;;;;;;4993966;28;20400;-80
2023/07/10 06:07:24;;;;;;;5.45;4.22;;;;;;;;;;4993585;28;20399;-81
2023/07/10 06:09:50;;;;;;;11.77;5.70;;;;;;;;;;4993407;28;20895;-80
2023/07/10 06:12:16;;;;;;;8.55;5.43;;;;;;;;;;4976495;28;20391;-80
2023/07/10 06:14:42;;;;;;;13.50;7.10;;;;;;;;;;4993655;28;20493;-81
2023/07/10 06:17:10;;;;;;;18.45;8.05;;;;;;;;;;4993908;28;20374;-81
2023/07/10 06:19:36;;;;;;;12.38;6.45;;;;;;;;;;4976512;28;20944;-80
2023/07/10 06:22:10;;;;;;;12.57;6.93;;;;;;;;;;4975821;28;20470;-81
2023/07/10 06:24:36;;;;;;;10.98;6.43;;;;;;;;;;4993519;28;20390;-80
2023/07/10 06:27:05;;;;;;;8.70;6.47;;;;;;;;;;4992943;28;20397;-81
2023/07/10 06:29:31;;;;;;;10.68;6.28;;;;;;;;;;4992532;28;20907;-81
2023/07/10 06:31:58;;;;;;;10.00;6.97;;;;;;;;;;4992242;28;20522;-81
2023/07/10 06:34:24;;;;;;;8.40;7.00;;;;;;;;;;4992571;28;20405;-81
2023/07/10 06:36:50;;;;;;;9.38;6.88;;;;;;;;;;4975424;28;20383;-80
2023/07/10 06:39:16;;;;;;;7.72;6.60;;;;;;;;;;4992238;28;20401;-80
2023/07/10 06:41:42;;;;;;;8.60;6.65;;;;;;;;;;4992357;28;20775;-80
2023/07/10 06:44:08;;;;;;;6.30;5.70;;;;;;;;;;4992489;28;20481;-81
2023/07/10 06:46:33;;;;;;;8.48;6.22;;;;;;;;;;4992443;28;20469;-80
2023/07/10 06:48:59;;;;;;;6.63;5.95;;;;;;;;;;4992142;28;20891;-80
2023/07/10 06:51:25;;;;;;;8.75;6.32;;;;;;;;;;4993378;28;20445;-80
2023/07/10 06:53:51;;;;;;;11.23;6.80;;;;;;;;;;4991697;28;20456;-79
2023/07/10 06:56:17;;;;;;;7.68;6.63;;;;;;;;;;4971024;28;20394;-79
2023/07/10 06:58:43;;;;;;;9.23;7.70;;;;;;;;;;4992244;28;20955;-81
2023/07/10 07:01:09;;;;;;;8.32;6.63;;;;;;;;;;4991807;28;20422;-81
2023/07/10 07:03:35;;;;;;;7.60;6.80;;;;;;;;;;4994779;28;20386;-81
2023/07/10 07:06:05;;;;;;;7.63;6.60;;;;;;;;;;4992116;28;20406;-81
2023/07/10 07:08:31;;;;;;;8.15;7.00;;;;;;;;;;4991984;28;20529;-82
2023/07/10 07:10:57;;;;;;;11.52;8.18;;;;;;;;;;4992059;28;20421;-80
2023/07/10 07:13:23;;;;;;;11.93;9.03;;;;;;;;;;4992130;28;20394;-80
2023/07/10 07:15:53;;;;;;;15.77;11.57;;;;;;;;;;4991980;28;20390;-80
2023/07/10 07:18:20;;;;;;;22.38;14.27;;;;;;;;;;4992129;28;20390;-81
2023/07/10 07:20:46;;;;;;;17.35;12.80;;;;;;;;;;4994386;28;20389;-81
2023/07/10 07:23:12;;;;;;;18.35;13.35;;;;;;;;;;4992052;28;20386;-81
2023/07/10 07:25:40;;;;;;;13.10;10.27;;;;;;;;;;4991911;28;20872;-80
2023/07/10 07:28:06;;;;;;;10.13;7.80;;;;;;;;;;4991864;28;20383;-80
2023/07/10 07:30:32;;;;;;;7.75;6.70;;;;;;;;;;4991743;28;20414;-80
2023/07/10 07:32:58;;;;;;;7.22;6.28;;;;;;;;;;5000629;28;20382;-79
2023/07/10 07:35:25;;;;;;;7.75;5.80;;;;;;;;;;4991914;28;20444;-80
2023/07/10 07:37:51;;;;;;;7.53;5.63;;;;;;;;;;4991609;28;20390;-80
2023/07/10 07:40:17;;;;;;;6.25;5.40;;;;;;;;;;4991781;28;20474;-82
2023/07/10 07:42:49;;;;;;;6.50;5.80;;;;;;;;;;4991747;28;20722;-81
2023/07/10 07:45:15;;;;;;;6.72;5.60;;;;;;;;;;4989279;28;20386;-81
2023/07/10 07:47:41;;;;;;;8.57;6.93;;;;;;;;;;4995753;28;20485;-81
2023/07/10 07:50:08;;;;;;;5.95;5.45;;;;;;;;;;4995567;28;20971;-82
2023/07/10 07:52:34;;;;;;;8.15;5.05;;;;;;;;;;4995313;28;20382;-81
2023/07/10 07:55:00;;;;;;;6.15;5.60;;;;;;;;;;4995482;28;20394;-82
2023/07/10 07:57:26;;;;;;;8.10;6.72;;;;;;;;;;4995558;28;20825;-83
2023/07/10 07:59:52;;;;;;;6.90;6.20;;;;;;;;;;4995515;28;20382;-84
2023/07/10 08:02:19;;;;;;;8.45;5.93;;;;;;;;;;4977226;28;20421;-84
2023/07/10 08:04:48;;;;;;;5.75;4.78;;;;;;;;;;4995471;28;20862;-84
2023/07/10 08:07:22;;;;;;;6.38;5.15;;;;;;;;;;4977929;28;20481;-85
2023/07/10 08:09:51;;;;;;;6.70;5.15;;;;;;;;;;4994850;28;20410;-84
2023/07/10 08:12:17;;;;;;;5.90;5.40;;;;;;;;;;4995131;28;20461;-85
2023/07/10 08:14:43;;;;;;;6.05;5.20;;;;;;;;;;4995407;28;20944;-85
2023/07/10 08:17:09;;;;;;;6.20;5.30;;;;;;;;;;4995260;28;20385;-83
2023/07/10 08:19:38;;;;;;;6.10;5.20;;;;;;;;;;4994628;28;20461;-84
2023/07/10 08:22:04;;;;;;;5.65;5.15;;;;;;;;;;4974358;28;20886;-85
2023/07/10 08:24:30;;;;;;;5.25;4.78;;;;;;;;;;4992751;28;20401;-84
2023/07/10 08:26:59;;;;;;;5.45;4.82;;;;;;;;;;4995087;28;20379;-84
2023/07/10 08:29:34;;;;;;;6.07;5.40;;;;;;;;;;4977297;28;20882;-85
2023/07/10 08:32:00;;;;;;;5.55;5.00;;;;;;;;;;4994865;28;20490;-84
2023/07/10 08:34:28;;;;;;;6.60;5.90;;;;;;;;;;4994888;28;20469;-84
2023/07/10 08:36:58;;;;;;;5.30;4.53;;;;;;;;;;4994984;28;20400;-84
2023/07/10 08:39:25;;;;;;;5.30;4.80;;;;;;;;;;4994805;28;20386;-85
2023/07/10 08:42:00;;;;;;;6.50;4.57;;;;;;;;;;4995254;28;20375;-84
2023/07/10 08:44:47;;;;;;;5.25;4.75;;;;;;;;;;4995424;28;20405;-85
2023/07/10 08:47:21;;;;;;;7.60;5.53;;;;;;;;;;4993188;28;20558;-84
2023/07/10 08:49:59;;;;;;;6.80;5.45;;;;;;;;;;4991089;28;20410;-85
2023/07/10 08:52:57;;;;;;;5.80;5.30;;;;;;;;;;4977815;28;20422;-85
2023/07/10 08:55:27;;;;;;;5.60;4.63;;;;;;;;;;4965878;28;20408;-84
2023/07/10 08:58:01;;;;;;;5.78;5.18;;;;;;;;;;4995041;28;20386;-84
2023/07/10 09:00:28;;;;;;;5.47;4.95;;;;;;;;;;4995285;28;20884;-84
2023/07/10 09:03:13;;;;;;;6.00;5.37;;;;;;;;;;4997843;28;20766;-84
2023/07/10 09:05:44;;;;;;;6.38;5.38;;;;;;;;;;4991143;28;20470;-83
2023/07/10 09:08:12;;;;;;;5.70;5.10;;;;;;;;;;4992943;28;20413;-86
2023/07/10 09:10:46;;;;;;;8.00;5.35;;;;;;;;;;4974160;28;20924;-83
2023/07/10 09:13:14;;;;;;;5.75;5.00;;;;;;;;;;4996392;28;20383;-82
2023/07/10 09:15:45;;;;;;;5.50;4.55;;;;;;;;;;4994063;28;20382;-81
2023/07/10 09:18:38;;;;;;;7.35;5.47;;;;;;;;;;4995099;28;20386;-81
2023/07/10 09:21:13;;;;;;;5.57;5.00;;;;;;;;;;4994812;28;20963;-81
2023/07/10 09:23:39;;;;;;;5.45;4.40;;;;;;;;;;4996469;28;20860;-81
2023/07/10 09:26:18;;;;;;;5.88;4.63;;;;;;;;;;4994888;28;20390;-81
2023/07/10 09:28:47;;;;;;;5.05;4.65;;;;;;;;;;4994939;28;20390;-81
2023/07/10 09:31:33;;;;;;;4.78;4.28;;;;;;;;;;4994543;28;20410;-80
2023/07/10 09:34:00;;;;;;;5.60;4.15;;;;;;;;;;4994677;28;20397;-81
2023/07/10 09:36:27;;;;;;;6.07;4.15;;;;;;;;;;4994071;28;20387;-81
2023/07/10 09:38:53;;;;;;;6.00;4.33;;;;;;;;;;4994624;28;20876;-80
2023/07/10 09:41:21;;;;;;;5.30;4.40;;;;;;;;;;4994682;28;20412;-80
2023/07/10 09:43:53;;;;;;;6.55;4.47;;;;;;;;;;4994986;28;20449;-80
2023/07/10 09:46:23;;;;;;;6.05;4.45;;;;;;;;;;4994448;28;20382;-80
2023/07/10 09:48:51;;;;;;;5.10;4.60;;;;;;;;;;4994496;28;20481;-80
2023/07/10 09:51:17;;;;;;;5.07;4.50;;;;;;;;;;4994237;28;20410;-80
2023/07/10 09:53:45;;;;;;;5.70;4.40;;;;;;;;;;4994483;28;20379;-80
2023/07/10 09:56:35;;;;;;;5.40;4.47;;;;;;;;;;4994291;28;20466;-80
2023/07/10 09:59:01;;;;;;;5.20;4.75;;;;;;;;;;4994175;28;20852;-80
2023/07/10 10:01:31;;;;;;;5.18;4.50;;;;;;;;;;4994043;28;20414;-81
2023/07/10 10:03:57;;;;;;;4.88;4.28;;;;;;;;;;4994081;28;20417;-80
2023/07/10 10:06:28;;;;;;;6.30;4.40;;;;;;;;;;4993829;28;20394;-80
2023/07/10 10:08:55;;;;;;;5.25;4.75;;;;;;;;;;4993797;28;20398;-80
2023/07/10 10:11:33;;;;;;;4.88;4.40;;;;;;;;;;4993899;28;20501;-80
2023/07/10 10:14:01;;;;;;;5.25;4.55;;;;;;;;;;4993907;28;20932;-80
2023/07/10 10:16:46;;;;;;;6.25;4.68;;;;;;;;;;4994225;28;20461;-80
2023/07/10 10:19:21;;;;;;;4.88;4.35;;;;;;;;;;4993804;28;20449;-80
2023/07/10 10:21:47;;;;;;;4.70;4.20;;;;;;;;;;4993189;28;20436;-80
2023/07/10 10:24:13;;;;;;;4.57;4.13;;;;;;;;;;4993652;28;20382;-80
2023/07/10 10:26:39;;;;;;;4.85;3.80;;;;;;;;;;4993711;28;20505;-80
2023/07/10 10:29:16;;;;;;;6.80;4.18;;;;;;;;;;4993739;28;20932;-80
2023/07/10 10:32:12;;;;;;;4.97;3.83;;;;;;;;;;4993516;28;20411;-80
2023/07/10 10:34:37;;;;;;;4.28;3.88;;;;;;;;;;4965306;28;20390;-80
2023/07/10 10:37:09;;;;;;;4.32;3.95;;;;;;;;;;4993662;28;20440;-80
2023/07/10 10:39:40;;;;;;;6.57;3.90;;;;;;;;;;4976295;28;20466;-80
2023/07/10 10:42:18;;;;;;;4.40;3.88;;;;;;;;;;4993450;28;20955;-80
2023/07/10 10:45:12;;;;;;;4.50;4.10;;;;;;;;;;4993309;28;20437;-80
2023/07/10 10:47:44;;;;;;;5.60;4.80;;;;;;;;;;4989482;28;20430;-80
2023/07/10 10:50:16;;;;;;;4.75;4.25;;;;;;;;;;4993093;28;20426;-80
2023/07/10 10:55:56;;;;;;;4.47;4.07;;;;;;;;;;4982601;28;20370;-81
2023/07/10 10:58:39;;;;;;;5.60;4.38;;;;;;;;;;4993549;28;20379;-80
2023/07/10 11:01:29;;;;;;;4.88;4.40;;;;;;;;;;5001342;28;20479;-81
2023/07/10 11:03:57;;;;;;;4.75;4.38;;;;;;;;;;4993212;28;20382;-80
2023/07/10 11:06:47;;;;;;;4.55;4.15;;;;;;;;;;4993811;28;20387;-80
2023/07/10 11:09:19;;;;;;;4.53;3.97;;;;;;;;;;4981075;28;20741;-80
2023/07/10 11:11:45;;;;;;;6.50;5.17;;;;;;;;;;4993520;28;20760;-80
2023/07/10 11:14:14;;;;;;;5.53;5.00;;;;;;;;;;4995289;28;20378;-80
2023/07/10 11:17:02;;;;;;;4.20;3.60;;;;;;;;;;4992906;28;20389;-80
2023/07/10 11:19:29;;;;;;;4.25;3.80;;;;;;;;;;4993003;28;20374;-80
2023/07/10 11:21:55;;;;;;;5.50;3.65;;;;;;;;;;4992791;28;20872;-80
2023/07/10 11:24:33;;;;;;;3.72;3.33;;;;;;;;;;4992785;28;20382;-80
2023/07/10 11:27:01;;;;;;;6.97;4.60;;;;;;;;;;5000852;28;20476;-80
2023/07/10 11:29:33;;;;;;;3.70;3.40;;;;;;;;;;4992876;28;20776;-81
2023/07/10 11:32:00;;;;;;;3.67;3.38;;;;;;;;;;4992805;28;20464;-80
2023/07/10 11:35:10;;;;;;;4.95;3.20;;;;;;;;;;4992615;28;20421;-80
2023/07/10 11:37:48;;;;;;;3.70;3.40;;;;;;;;;;4992299;28;20397;-81
2023/07/10 11:40:32;;;;;;;7.22;5.72;;;;;;;;;;4980168;28;20397;-80
2023/07/10 11:43:03;;;;;;;4.23;3.80;;;;;;;;;;4992355;28;20848;-80
2023/07/10 11:45:32;;;;;;;4.03;3.63;;;;;;;;;;4992702;28;20382;-80
2023/07/10 11:47:58;;;;;;;6.00;3.60;;;;;;;;;;4992513;28;20468;-80
2023/07/10 11:50:29;;;;;;;3.95;3.15;;;;;;;;;;4992621;28;20458;-80
2023/07/10 11:53:07;;;;;;;4.07;3.33;;;;;;;;;;4992646;28;20378;-80
2023/07/10 11:55:41;;;;;;;4.10;3.80;;;;;;;;;;4980076;28;20533;-80
2023/07/10 11:58:29;;;;;;;5.53;3.35;;;;;;;;;;4975754;28;20378;-80
2023/07/10 12:01:05;;;;;;;3.53;3.22;;;;;;;;;;4992680;28;20448;-80
2023/07/10 12:03:33;;;;;;;3.92;3.53;;;;;;;;;;4992403;28;20405;-80
2023/07/10 12:05:59;;;;;;;4.88;3.42;;;;;;;;;;4987737;28;20423;-84
2023/07/10 12:08:31;;;;;;;3.80;3.22;;;;;;;;;;4993746;28;20981;-80
2023/07/10 12:10:58;;;;;;;5.63;3.20;;;;;;;;;;4984153;28;20429;-80
2023/07/10 12:13:29;;;;;;;3.42;3.08;;;;;;;;;;4981934;28;20478;-79
2023/07/10 12:15:57;;;;;;;3.58;2.92;;;;;;;;;;4991243;28;20394;-79
2023/07/10 12:18:35;;;;;;;3.80;2.90;;;;;;;;;;4991330;28;20919;-80
2023/07/10 12:21:02;;;;;;;3.55;3.25;;;;;;;;;;4991763;28;20383;-79
2023/07/10 12:23:28;;;;;;;3.50;3.20;;;;;;;;;;4992086;28;20389;-79
2023/07/10 12:25:55;;;;;;;3.63;3.10;;;;;;;;;;4992010;28;20393;-80
2023/07/10 12:28:23;;;;;;;4.40;3.10;;;;;;;;;;4991157;28;20391;-81
2023/07/10 12:30:53;;;;;;;3.87;3.13;;;;;;;;;;4989945;28;20781;-80
2023/07/10 12:33:38;;;;;;;3.72;3.35;;;;;;;;;;4994511;28;20389;-80
2023/07/10 12:36:06;;;;;;;3.97;3.57;;;;;;;;;;4995214;28;20378;-80
2023/07/10 12:38:32;;;;;;;3.75;3.28;;;;;;;;;;4995167;28;20386;-80
2023/07/10 12:40:58;;;;;;;4.15;3.25;;;;;;;;;;4995034;28;20423;-80
2023/07/10 12:43:26;;;;;;;4.13;3.20;;;;;;;;;;4995165;28;20402;-80
2023/07/10 12:45:55;;;;;;;3.85;3.42;;;;;;;;;;4996052;28;20382;-81
2023/07/10 12:48:22;;;;;;;4.00;3.60;;;;;;;;;;4995713;28;20405;-80
2023/07/10 12:50:50;;;;;;;3.92;3.50;;;;;;;;;;4995590;28;20410;-80
2023/07/10 12:53:26;;;;;;;4.40;3.43;;;;;;;;;;4995477;28;20883;-80
2023/07/10 12:56:04;;;;;;;4.55;3.13;;;;;;;;;;4985859;28;20972;-81
2023/07/10 12:58:30;;;;;;;4.05;3.55;;;;;;;;;;4995325;28;20387;-81
2023/07/10 13:00:58;;;;;;;4.57;2.90;;;;;;;;;;4995095;28;20413;-81
2023/07/10 13:03:32;;;;;;;4.22;3.60;;;;;;;;;;4996331;28;20386;-81
2023/07/10 13:06:00;;;;;;;6.37;4.70;;;;;;;;;;4995253;28;20862;-81
2023/07/10 13:08:33;;;;;;;5.57;3.50;;;;;;;;;;5001759;28;20460;-81
2023/07/10 13:11:00;;;;;;;3.80;3.50;;;;;;;;;;4994983;28;20414;-81
2023/07/10 13:13:28;;;;;;;4.72;3.40;;;;;;;;;;4995209;28;20390;-81
2023/07/10 13:15:58;;;;;;;3.67;3.00;;;;;;;;;;4995093;28;20454;-81
2023/07/10 13:18:25;;;;;;;3.65;3.28;;;;;;;;;;4995199;28;20395;-81
2023/07/10 13:20:52;;;;;;;4.17;3.57;;;;;;;;;;4994682;28;20404;-81
2023/07/10 13:23:18;;;;;;;3.60;3.30;;;;;;;;;;4979957;28;20391;-80
2023/07/10 13:25:44;;;;;;;3.72;3.20;;;;;;;;;;4995020;28;20397;-81
2023/07/10 13:28:16;;;;;;;4.75;3.40;;;;;;;;;;4998006;28;20397;-81
2023/07/10 13:30:42;;;;;;;6.25;3.47;;;;;;;;;;5002035;28;20745;-81
2023/07/10 13:33:17;;;;;;;4.05;3.50;;;;;;;;;;4994668;28;20864;-81
2023/07/10 13:35:44;;;;;;;4.47;3.33;;;;;;;;;;4994265;28;20417;-81
2023/07/10 13:38:11;;;;;;;3.50;3.20;;;;;;;;;;4994680;28;20425;-81
2023/07/10 13:40:37;;;;;;;3.53;3.23;;;;;;;;;;4995087;28;20390;-81
2023/07/10 13:43:10;;;;;;;6.15;3.15;;;;;;;;;;4993664;28;20395;-81
2023/07/10 13:45:36;;;;;;;4.75;3.40;;;;;;;;;;4994521;28;20394;-81
2023/07/10 13:48:08;;;;;;;4.72;3.30;;;;;;;;;;4993838;28;20922;-81
2023/07/10 13:50:34;;;;;;;5.37;3.40;;;;;;;;;;4993785;28;20425;-81
2023/07/10 13:53:00;;;;;;;3.90;3.40;;;;;;;;;;4994293;28;20386;-81
2023/07/10 13:55:26;;;;;;;3.70;3.30;;;;;;;;;;4993845;28;20876;-81
2023/07/10 13:57:52;;;;;;;4.05;3.65;;;;;;;;;;4994298;28;20444;-81
2023/07/10 14:00:18;;;;;;;3.65;3.20;;;;;;;;;;4993948;28;20875;-80
2023/07/10 14:02:48;;;;;;;4.28;3.60;;;;;;;;;;4976544;28;20407;-81
2023/07/10 14:05:16;;;;;;;3.78;3.40;;;;;;;;;;4994300;28;20378;-81
2023/07/10 14:07:43;;;;;;;4.63;3.55;;;;;;;;;;4992903;28;20426;-81
2023/07/10 14:10:20;;;;;;;3.78;3.20;;;;;;;;;;4994208;28;20424;-81
2023/07/10 14:12:46;;;;;;;3.72;3.42;;;;;;;;;;4993762;28;20382;-81
2023/07/10 14:15:14;;;;;;;3.45;3.13;;;;;;;;;;4992693;28;20876;-81
2023/07/10 14:17:40;;;;;;;3.53;3.20;;;;;;;;;;4993779;28;20472;-81
2023/07/10 14:20:09;;;;;;;5.22;3.10;;;;;;;;;;4993982;28;20884;-81
2023/07/10 14:22:37;;;;;;;3.38;3.08;;;;;;;;;;4975829;28;20449;-81
2023/07/10 14:25:03;;;;;;;3.97;3.27;;;;;;;;;;4993355;28;20395;-81
2023/07/10 14:27:33;;;;;;;3.43;3.10;;;;;;;;;;4993842;28;20409;-80
2023/07/10 14:29:59;;;;;;;3.35;3.05;;;;;;;;;;4974952;28;20410;-81
2023/07/10 14:32:26;;;;;;;3.35;3.10;;;;;;;;;;4993588;28;20410;-82
2023/07/10 14:34:52;;;;;;;3.50;3.08;;;;;;;;;;4993287;28;20553;-81
2023/07/10 14:37:28;;;;;;;3.28;2.95;;;;;;;;;;4993238;28;20907;-81
2023/07/10 14:39:57;;;;;;;3.42;3.13;;;;;;;;;;4993564;28;20485;-81
2023/07/10 14:42:26;;;;;;;3.50;3.20;;;;;;;;;;4993429;28;20390;-80
2023/07/10 14:44:52;;;;;;;6.32;3.30;;;;;;;;;;4992987;28;20441;-82
2023/07/10 14:47:21;;;;;;;3.10;2.78;;;;;;;;;;4976246;28;20445;-82
2023/07/10 14:49:48;;;;;;;4.32;3.38;;;;;;;;;;4993139;28;20391;-83
2023/07/10 14:52:32;;;;;;;3.50;3.20;;;;;;;;;;4993277;28;20440;-82
2023/07/10 14:55:00;;;;;;;4.60;2.95;;;;;;;;;;4991703;28;20403;-83
2023/07/10 14:57:37;;;;;;;4.57;3.60;;;;;;;;;;4984019;28;21229;-79